Time;durP1;ratioP1;P1;durP2;ratioP2;P2;SDS_P1;SDS_P2;PMS_P1;PMS_P2;Temp;Humidity;BMP_temperature;BMP_pressure;BME280_temperature;BME280_humidity;BME280_pressure;Samples;Min_cycle;Max_cycle;Signal;HPM_P1;HPM_P2
2023/07/17 00:01:55;;;;;;;12.05;3.13;;;;;;;;;;5050698;28;20040;-72
2023/07/17 00:04:21;;;;;;;9.20;2.70;;;;;;;;;;5044143;28;20043;-70
2023/07/17 00:06:47;;;;;;;12.23;3.15;;;;;;;;;;5045833;28;20437;-69
2023/07/17 00:09:13;;;;;;;13.38;4.03;;;;;;;;;;5047466;28;20069;-70
2023/07/17 00:11:40;;;;;;;12.35;3.95;;;;;;;;;;5037944;28;20453;-70
2023/07/17 00:14:06;;;;;;;16.60;2.80;;;;;;;;;;5046190;28;20124;-69
2023/07/17 00:16:32;;;;;;;19.02;2.85;;;;;;;;;;5038678;28;20098;-70
2023/07/17 00:18:58;;;;;;;13.95;3.30;;;;;;;;;;5043959;28;20084;-70
2023/07/17 00:21:24;;;;;;;14.88;3.80;;;;;;;;;;5050891;28;20025;-69
2023/07/17 00:23:50;;;;;;;10.00;3.05;;;;;;;;;;5056294;28;20040;-70
2023/07/17 00:26:16;;;;;;;13.98;2.92;;;;;;;;;;5038943;28;20053;-70
2023/07/17 00:28:43;;;;;;;12.05;2.80;;;;;;;;;;5039347;28;20037;-69
2023/07/17 00:31:09;;;;;;;13.45;2.97;;;;;;;;;;5042777;28;20041;-69
2023/07/17 00:33:35;;;;;;;11.65;2.75;;;;;;;;;;5038839;28;20554;-69
2023/07/17 00:36:02;;;;;;;11.65;2.92;;;;;;;;;;5040768;28;20047;-70
2023/07/17 00:38:28;;;;;;;11.45;3.13;;;;;;;;;;5040033;28;20026;-69
2023/07/17 00:40:54;;;;;;;9.48;2.83;;;;;;;;;;5057644;28;20036;-70
2023/07/17 00:43:20;;;;;;;11.30;2.97;;;;;;;;;;5042563;28;20055;-71
2023/07/17 00:45:46;;;;;;;11.40;2.97;;;;;;;;;;5038270;28;20057;-70
2023/07/17 00:48:13;;;;;;;11.25;3.42;;;;;;;;;;5039053;28;20033;-70
2023/07/17 00:50:39;;;;;;;11.18;2.92;;;;;;;;;;5037703;28;20114;-70
2023/07/17 00:53:07;;;;;;;11.15;2.85;;;;;;;;;;5054370;28;20075;-70
2023/07/17 00:55:33;;;;;;;6.63;2.47;;;;;;;;;;5039687;28;20130;-71
2023/07/17 00:58:00;;;;;;;13.55;2.67;;;;;;;;;;5043615;28;20025;-70
2023/07/17 01:00:27;;;;;;;9.48;3.15;;;;;;;;;;5044717;28;20926;-69
2023/07/17 01:02:53;;;;;;;10.02;2.63;;;;;;;;;;5025762;28;20128;-69
2023/07/17 01:05:19;;;;;;;8.80;2.30;;;;;;;;;;5036903;28;20455;-69
2023/07/17 01:07:46;;;;;;;8.65;2.53;;;;;;;;;;5036342;28;20120;-69
2023/07/17 01:10:12;;;;;;;10.48;2.70;;;;;;;;;;5040983;28;20033;-70
2023/07/17 01:12:38;;;;;;;12.00;2.88;;;;;;;;;;5037920;28;20041;-69
2023/07/17 01:15:06;;;;;;;13.10;3.30;;;;;;;;;;5040146;28;20025;-69
2023/07/17 01:17:33;;;;;;;11.32;3.25;;;;;;;;;;5040944;28;20345;-69
2023/07/17 01:19:59;;;;;;;9.85;2.65;;;;;;;;;;5044819;28;20068;-69
2023/07/17 01:22:34;;;;;;;12.23;2.78;;;;;;;;;;5033108;28;20032;-69
2023/07/17 01:25:00;;;;;;;11.40;3.40;;;;;;;;;;5033933;28;20126;-70
2023/07/17 01:27:26;;;;;;;10.02;2.85;;;;;;;;;;5034894;28;20025;-70
2023/07/17 01:29:52;;;;;;;9.63;2.80;;;;;;;;;;5023155;28;20037;-71
2023/07/17 01:32:20;;;;;;;12.77;2.90;;;;;;;;;;5036273;28;20198;-70
2023/07/17 01:34:47;;;;;;;12.65;3.28;;;;;;;;;;5043711;28;20127;-71
2023/07/17 01:37:13;;;;;;;13.25;3.10;;;;;;;;;;5042847;28;20060;-72
2023/07/17 01:39:39;;;;;;;8.02;3.08;;;;;;;;;;5040027;28;20021;-69
2023/07/17 01:42:05;;;;;;;13.35;3.28;;;;;;;;;;5036405;28;20053;-70
2023/07/17 01:44:32;;;;;;;12.80;3.85;;;;;;;;;;5054798;28;20025;-70
2023/07/17 01:46:59;;;;;;;12.02;3.53;;;;;;;;;;5037160;28;20035;-70
2023/07/17 01:49:25;;;;;;;13.93;2.92;;;;;;;;;;5024741;28;20036;-70
2023/07/17 01:51:51;;;;;;;13.52;3.08;;;;;;;;;;5036019;28;21301;-70
2023/07/17 01:54:17;;;;;;;15.23;3.72;;;;;;;;;;5054442;28;20082;-70
2023/07/17 01:56:43;;;;;;;13.82;3.42;;;;;;;;;;5038229;28;20463;-70
2023/07/17 01:59:11;;;;;;;12.25;3.55;;;;;;;;;;5042181;28;20040;-70
2023/07/17 02:01:37;;;;;;;11.82;3.55;;;;;;;;;;5040348;28;20022;-69
2023/07/17 02:04:03;;;;;;;15.43;3.80;;;;;;;;;;5019298;28;20477;-70
2023/07/17 02:06:29;;;;;;;13.43;3.40;;;;;;;;;;5038834;28;20026;-70
2023/07/17 02:08:56;;;;;;;16.60;4.40;;;;;;;;;;5051021;28;20469;-69
2023/07/17 02:11:26;;;;;;;14.00;3.60;;;;;;;;;;5049075;28;20498;-69
2023/07/17 02:13:54;;;;;;;15.07;3.28;;;;;;;;;;5034174;28;20017;-69
2023/07/17 02:16:20;;;;;;;10.98;3.40;;;;;;;;;;5024098;28;20021;-70
2023/07/17 02:18:46;;;;;;;16.73;4.25;;;;;;;;;;5045155;28;20116;-69
2023/07/17 02:21:12;;;;;;;12.38;4.13;;;;;;;;;;5040910;28;20036;-70
2023/07/17 02:23:39;;;;;;;11.27;3.05;;;;;;;;;;5040677;28;20099;-70
2023/07/17 02:26:06;;;;;;;12.98;3.78;;;;;;;;;;5060587;28;20067;-70
2023/07/17 02:28:33;;;;;;;10.20;3.55;;;;;;;;;;5046223;28;20041;-70
2023/07/17 02:30:59;;;;;;;18.25;5.10;;;;;;;;;;5046371;28;20104;-70
2023/07/17 02:33:25;;;;;;;9.82;3.30;;;;;;;;;;5048227;28;20442;-69
2023/07/17 02:35:51;;;;;;;12.85;4.10;;;;;;;;;;5040587;28;20044;-69
2023/07/17 02:38:17;;;;;;;10.57;3.83;;;;;;;;;;5046054;28;20029;-69
2023/07/17 02:40:44;;;;;;;18.35;4.28;;;;;;;;;;5046606;28;20367;-70
2023/07/17 02:43:10;;;;;;;10.82;3.95;;;;;;;;;;5048279;28;20021;-70
2023/07/17 02:45:39;;;;;;;13.20;4.10;;;;;;;;;;5046689;28;20390;-69
2023/07/17 02:48:05;;;;;;;14.40;3.65;;;;;;;;;;5050500;28;20041;-70
2023/07/17 02:50:32;;;;;;;16.80;3.90;;;;;;;;;;5043530;28;20039;-70
2023/07/17 02:52:58;;;;;;;12.90;3.67;;;;;;;;;;5046315;28;20064;-70
2023/07/17 02:55:25;;;;;;;14.75;3.90;;;;;;;;;;5047362;28;20033;-70
2023/07/17 02:57:51;;;;;;;10.57;3.83;;;;;;;;;;5045708;28;20035;-70
2023/07/17 03:00:17;;;;;;;12.68;3.75;;;;;;;;;;5050375;28;20323;-69
2023/07/17 03:02:44;;;;;;;13.32;3.38;;;;;;;;;;5064559;28;20067;-70
2023/07/17 03:05:11;;;;;;;15.52;4.72;;;;;;;;;;5066346;28;20808;-70
2023/07/17 03:07:38;;;;;;;13.75;4.32;;;;;;;;;;5062684;28;20029;-69
2023/07/17 03:10:04;;;;;;;16.40;4.43;;;;;;;;;;5047483;28;20074;-72
2023/07/17 03:12:30;;;;;;;13.55;4.38;;;;;;;;;;5048034;28;20033;-70
2023/07/17 03:14:58;;;;;;;16.88;4.20;;;;;;;;;;5044164;28;20116;-70
2023/07/17 03:17:24;;;;;;;18.48;5.03;;;;;;;;;;5026900;28;20086;-70
2023/07/17 03:19:53;;;;;;;16.40;4.60;;;;;;;;;;5053666;28;20044;-70
2023/07/17 03:22:19;;;;;;;16.15;4.15;;;;;;;;;;5043484;28;20119;-71
2023/07/17 03:24:45;;;;;;;19.42;5.30;;;;;;;;;;5043457;28;20545;-70
2023/07/17 03:27:12;;;;;;;16.30;4.72;;;;;;;;;;5028374;28;20036;-71
2023/07/17 03:29:38;;;;;;;13.07;4.70;;;;;;;;;;5046405;28;20041;-70
2023/07/17 03:32:06;;;;;;;14.75;4.65;;;;;;;;;;5044251;28;20033;-70
2023/07/17 03:34:32;;;;;;;19.20;4.53;;;;;;;;;;5047046;28;20028;-70
2023/07/17 03:36:58;;;;;;;14.13;4.90;;;;;;;;;;5045657;28;20039;-70
2023/07/17 03:39:25;;;;;;;20.13;5.68;;;;;;;;;;5041653;28;20032;-70
2023/07/17 03:41:51;;;;;;;17.85;4.88;;;;;;;;;;5032964;28;20017;-70
2023/07/17 03:44:17;;;;;;;12.77;4.68;;;;;;;;;;5041471;28;20129;-70
2023/07/17 03:46:44;;;;;;;16.25;4.88;;;;;;;;;;5044834;28;20047;-71
2023/07/17 03:49:10;;;;;;;18.92;5.22;;;;;;;;;;5035465;28;20056;-71
2023/07/17 03:51:37;;;;;;;17.52;5.32;;;;;;;;;;5044334;28;20032;-70
2023/07/17 03:54:04;;;;;;;24.58;5.50;;;;;;;;;;5040852;28;20517;-70
2023/07/17 03:56:31;;;;;;;20.13;5.90;;;;;;;;;;5040490;28;20047;-70
2023/07/17 03:58:58;;;;;;;19.60;7.38;;;;;;;;;;5029539;28;20389;-69
2023/07/17 04:01:24;;;;;;;14.00;5.55;;;;;;;;;;5047832;28;20121;-71
2023/07/17 04:03:51;;;;;;;13.85;5.05;;;;;;;;;;5039229;28;20038;-70
2023/07/17 04:06:17;;;;;;;17.58;6.20;;;;;;;;;;5062155;28;20536;-71
2023/07/17 04:08:43;;;;;;;17.95;5.65;;;;;;;;;;5046598;28;20039;-71
2023/07/17 04:11:09;;;;;;;18.20;5.40;;;;;;;;;;5043164;28;20140;-69
2023/07/17 04:13:35;;;;;;;19.63;6.15;;;;;;;;;;5042432;28;20033;-71
2023/07/17 04:16:02;;;;;;;15.73;6.80;;;;;;;;;;5038036;28;20075;-71
2023/07/17 04:18:29;;;;;;;18.02;6.20;;;;;;;;;;5046159;28;20060;-72
2023/07/17 04:20:55;;;;;;;17.55;6.18;;;;;;;;;;5024123;28;20087;-70
2023/07/17 04:23:21;;;;;;;24.10;7.30;;;;;;;;;;5044387;28;20474;-71
2023/07/17 04:25:52;;;;;;;;;;;;;;;;;;5045272;28;20084;-72
2023/07/17 04:28:21;;;;;;;22.25;5.85;;;;;;;;;;5042624;28;19943;-71
2023/07/17 04:30:49;;;;;;;19.73;6.82;;;;;;;;;;5042870;28;20029;-70
2023/07/17 04:33:15;;;;;;;21.13;7.25;;;;;;;;;;5046761;28;20037;-71
2023/07/17 04:35:43;;;;;;;21.08;6.97;;;;;;;;;;5039548;28;20053;-70
2023/07/17 04:38:09;;;;;;;20.52;6.63;;;;;;;;;;5049679;28;20039;-70
2023/07/17 04:40:35;;;;;;;25.55;7.97;;;;;;;;;;5061915;28;20384;-70
2023/07/17 04:43:03;;;;;;;16.55;6.03;;;;;;;;;;5047327;28;20098;-71
2023/07/17 04:45:31;;;;;;;16.95;6.25;;;;;;;;;;5043453;28;20028;-71
2023/07/17 04:47:58;;;;;;;20.95;6.82;;;;;;;;;;5045876;28;20056;-70
2023/07/17 04:50:28;;;;;;;24.05;7.47;;;;;;;;;;5052479;28;20485;-70
2023/07/17 04:52:56;;;;;;;17.67;6.38;;;;;;;;;;5041381;28;20393;-70
2023/07/17 04:55:24;;;;;;;17.13;6.45;;;;;;;;;;5038568;28;20085;-70
2023/07/17 04:57:50;;;;;;;15.20;6.13;;;;;;;;;;5036689;28;20111;-70
2023/07/17 05:00:20;;;;;;;22.55;6.45;;;;;;;;;;5032709;28;20043;-70
2023/07/17 05:02:48;;;;;;;22.83;7.70;;;;;;;;;;5043252;28;20040;-70
2023/07/17 05:05:14;;;;;;;23.42;7.20;;;;;;;;;;5057688;28;20030;-71
2023/07/17 05:07:41;;;;;;;24.95;7.15;;;;;;;;;;5044142;28;20057;-70
2023/07/17 05:10:08;;;;;;;18.17;6.95;;;;;;;;;;5061498;28;20028;-70
2023/07/17 05:12:35;;;;;;;20.70;7.63;;;;;;;;;;5041967;28;20060;-70
2023/07/17 05:15:03;;;;;;;24.75;7.55;;;;;;;;;;5024029;28;20039;-70
2023/07/17 05:17:30;;;;;;;14.93;6.65;;;;;;;;;;5040526;28;20018;-70
2023/07/17 05:19:56;;;;;;;23.20;7.63;;;;;;;;;;5041060;28;20040;-70
2023/07/17 05:22:22;;;;;;;22.58;7.22;;;;;;;;;;5042486;28;20885;-71
2023/07/17 05:24:50;;;;;;;22.17;7.78;;;;;;;;;;5042308;28;20045;-71
2023/07/17 05:27:17;;;;;;;20.92;8.13;;;;;;;;;;5062594;28;20389;-71
2023/07/17 05:29:43;;;;;;;22.17;7.60;;;;;;;;;;5044760;28;20033;-70
2023/07/17 05:32:10;;;;;;;19.63;7.50;;;;;;;;;;5045850;28;21989;-69
2023/07/17 05:34:37;;;;;;;16.55;7.10;;;;;;;;;;5048887;28;20032;-70
2023/07/17 05:37:03;;;;;;;28.08;8.65;;;;;;;;;;5050151;28;20482;-70
2023/07/17 05:39:29;;;;;;;19.40;7.70;;;;;;;;;;5043044;28;20025;-72
2023/07/17 05:41:56;;;;;;;19.65;7.78;;;;;;;;;;5058822;28;20706;-70
2023/07/17 05:44:23;;;;;;;17.27;7.68;;;;;;;;;;5060743;28;20057;-70
2023/07/17 05:46:49;;;;;;;23.05;8.00;;;;;;;;;;5061255;28;20028;-70
2023/07/17 05:49:15;;;;;;;18.90;7.43;;;;;;;;;;5061030;28;20029;-70
2023/07/17 05:51:44;;;;;;;18.52;7.85;;;;;;;;;;5046661;28;20025;-71
2023/07/17 05:54:11;;;;;;;20.58;8.02;;;;;;;;;;5045698;28;20048;-70
2023/07/17 05:56:37;;;;;;;19.48;7.80;;;;;;;;;;5060351;28;20501;-71
2023/07/17 05:59:04;;;;;;;25.83;9.30;;;;;;;;;;5047469;28;20030;-70
2023/07/17 06:01:30;;;;;;;19.73;8.48;;;;;;;;;;5043658;28;20093;-70
2023/07/17 06:03:56;;;;;;;19.15;9.73;;;;;;;;;;5042250;28;20036;-69
2023/07/17 06:06:22;;;;;;;24.90;9.65;;;;;;;;;;5037242;28;20103;-70
2023/07/17 06:08:48;;;;;;;21.83;9.27;;;;;;;;;;5047689;28;20025;-70
2023/07/17 06:11:15;;;;;;;21.77;8.43;;;;;;;;;;5045752;28;20045;-70
2023/07/17 06:13:41;;;;;;;27.15;9.98;;;;;;;;;;5048388;28;20135;-71
2023/07/17 06:16:07;;;;;;;24.67;9.48;;;;;;;;;;5049134;28;20135;-72
2023/07/17 06:18:33;;;;;;;24.40;9.95;;;;;;;;;;5043426;28;20562;-71
2023/07/17 06:21:00;;;;;;;31.70;11.35;;;;;;;;;;5060404;28;20028;-71
2023/07/17 06:23:26;;;;;;;25.60;10.18;;;;;;;;;;5051960;28;20036;-70
2023/07/17 06:25:52;;;;;;;27.70;10.02;;;;;;;;;;5049568;28;20052;-70
2023/07/17 06:28:19;;;;;;;30.85;10.60;;;;;;;;;;5044558;28;20409;-69
2023/07/17 06:30:48;;;;;;;25.55;10.38;;;;;;;;;;5047722;28;20075;-70
2023/07/17 06:33:14;;;;;;;27.90;10.27;;;;;;;;;;5055290;28;20404;-70
2023/07/17 06:35:40;;;;;;;24.48;9.45;;;;;;;;;;5047434;28;20044;-70
2023/07/17 06:38:07;;;;;;;23.50;8.90;;;;;;;;;;5056847;28;20072;-70
2023/07/17 06:40:35;;;;;;;20.88;9.30;;;;;;;;;;5047862;28;20047;-71
2023/07/17 06:43:01;;;;;;;27.05;9.07;;;;;;;;;;5049107;28;20056;-70
2023/07/17 06:45:27;;;;;;;18.38;9.38;;;;;;;;;;5051205;28;20063;-70
2023/07/17 06:47:53;;;;;;;25.63;8.95;;;;;;;;;;5042286;28;20490;-69
2023/07/17 06:50:19;;;;;;;23.67;9.70;;;;;;;;;;5048627;28;20136;-69
2023/07/17 06:52:45;;;;;;;23.58;9.50;;;;;;;;;;5051587;28;20124;-70
2023/07/17 06:55:11;;;;;;;21.88;8.65;;;;;;;;;;5044757;28;20510;-70
2023/07/17 06:57:37;;;;;;;18.67;9.10;;;;;;;;;;5043879;28;20033;-70
2023/07/17 07:00:05;;;;;;;25.42;8.88;;;;;;;;;;5052146;28;20040;-69
2023/07/17 07:02:32;;;;;;;23.75;8.45;;;;;;;;;;5047233;28;20047;-70
2023/07/17 07:04:58;;;;;;;19.83;7.97;;;;;;;;;;5044101;28;20036;-70
2023/07/17 07:07:24;;;;;;;22.80;8.27;;;;;;;;;;5062000;28;20029;-70
2023/07/17 07:09:50;;;;;;;21.05;8.05;;;;;;;;;;5051365;28;20040;-70
2023/07/17 07:12:17;;;;;;;22.50;8.38;;;;;;;;;;5052432;28;20041;-70
2023/07/17 07:14:43;;;;;;;18.25;7.55;;;;;;;;;;5055198;28;20029;-70
2023/07/17 07:17:10;;;;;;;18.48;8.15;;;;;;;;;;5046138;28;20033;-69
2023/07/17 07:19:36;;;;;;;20.23;7.57;;;;;;;;;;5034912;28;20032;-69
2023/07/17 07:22:02;;;;;;;15.07;7.07;;;;;;;;;;5043351;28;20072;-70
2023/07/17 07:24:28;;;;;;;24.17;7.18;;;;;;;;;;5048206;28;20133;-69
2023/07/17 07:26:55;;;;;;;17.73;6.72;;;;;;;;;;5034054;28;20124;-70
2023/07/17 07:29:21;;;;;;;18.08;6.93;;;;;;;;;;5049776;28;20036;-70
2023/07/17 07:31:47;;;;;;;20.23;8.05;;;;;;;;;;5062417;28;20037;-71
2023/07/17 07:34:13;;;;;;;20.92;7.78;;;;;;;;;;5047935;28;20064;-70
2023/07/17 07:36:39;;;;;;;22.00;7.45;;;;;;;;;;5047456;28;20026;-70
2023/07/17 07:39:05;;;;;;;19.70;7.43;;;;;;;;;;5040936;28;20033;-70
2023/07/17 07:41:35;;;;;;;26.45;7.38;;;;;;;;;;5047393;28;20103;-68
2023/07/17 07:44:02;;;;;;;18.08;6.90;;;;;;;;;;5051816;28;20044;-70
2023/07/17 07:46:28;;;;;;;15.63;6.55;;;;;;;;;;5030442;28;20584;-71
2023/07/17 07:48:54;;;;;;;16.88;6.72;;;;;;;;;;5032753;28;20039;-70
2023/07/17 07:51:20;;;;;;;19.67;6.47;;;;;;;;;;5033254;28;20117;-70
2023/07/17 07:53:47;;;;;;;13.73;5.65;;;;;;;;;;5046176;28;20037;-70
2023/07/17 07:56:13;;;;;;;18.75;6.63;;;;;;;;;;5050724;28;20108;-70
2023/07/17 07:58:39;;;;;;;17.58;6.22;;;;;;;;;;5037673;28;20060;-70
2023/07/17 08:01:05;;;;;;;19.83;6.07;;;;;;;;;;5039935;28;20025;-71
2023/07/17 08:03:34;;;;;;;17.08;6.93;;;;;;;;;;5045380;28;20052;-70
2023/07/17 08:06:00;;;;;;;22.70;7.13;;;;;;;;;;5048551;28;20044;-70
2023/07/17 08:08:27;;;;;;;17.42;6.45;;;;;;;;;;5046627;28;20025;-70
2023/07/17 08:10:54;;;;;;;15.68;6.07;;;;;;;;;;5050443;28;20128;-70
2023/07/17 08:13:20;;;;;;;14.77;6.40;;;;;;;;;;5049232;28;20029;-70
2023/07/17 08:15:47;;;;;;;16.42;5.25;;;;;;;;;;5046510;28;20037;-70
2023/07/17 08:18:13;;;;;;;15.50;5.38;;;;;;;;;;5050055;28;20108;-70
2023/07/17 08:20:39;;;;;;;15.55;5.15;;;;;;;;;;5066409;28;20030;-71
2023/07/17 08:23:06;;;;;;;13.02;4.53;;;;;;;;;;5051062;28;20040;-70
2023/07/17 08:25:32;;;;;;;17.85;4.93;;;;;;;;;;5050325;28;20151;-72
2023/07/17 08:27:59;;;;;;;8.50;4.45;;;;;;;;;;5045071;28;20025;-70
2023/07/17 08:30:26;;;;;;;13.50;3.97;;;;;;;;;;5039945;28;20029;-71
2023/07/17 08:32:52;;;;;;;9.30;3.50;;;;;;;;;;5034681;28;20036;-71
2023/07/17 08:35:18;;;;;;;14.35;3.95;;;;;;;;;;5043942;28;20458;-71
2023/07/17 08:37:44;;;;;;;11.73;3.33;;;;;;;;;;5031072;28;20026;-70
2023/07/17 08:40:11;;;;;;;12.95;3.03;;;;;;;;;;5041948;28;20052;-71
2023/07/17 08:42:37;;;;;;;6.80;3.08;;;;;;;;;;5038819;28;20372;-70
2023/07/17 08:45:04;;;;;;;9.75;3.03;;;;;;;;;;5038458;28;20090;-71
2023/07/17 08:47:31;;;;;;;4.78;2.33;;;;;;;;;;5040092;28;20044;-70
2023/07/17 08:49:58;;;;;;;9.90;2.67;;;;;;;;;;5036556;28;20051;-71
2023/07/17 08:52:25;;;;;;;6.80;2.92;;;;;;;;;;5036608;28;20077;-69
2023/07/17 08:54:51;;;;;;;5.65;2.47;;;;;;;;;;5038774;28;20088;-70
2023/07/17 08:57:17;;;;;;;6.82;3.00;;;;;;;;;;5048169;28;20029;-71
2023/07/17 08:59:44;;;;;;;8.32;3.03;;;;;;;;;;5037882;28;20051;-70
2023/07/17 09:02:10;;;;;;;11.70;2.80;;;;;;;;;;5040509;28;20052;-69
2023/07/17 09:04:36;;;;;;;12.43;3.28;;;;;;;;;;5039933;28;20127;-70
2023/07/17 09:07:03;;;;;;;7.93;3.00;;;;;;;;;;5048549;28;20077;-70
2023/07/17 09:09:29;;;;;;;9.05;2.92;;;;;;;;;;5035550;28;20029;-70
2023/07/17 09:12:07;;;;;;;13.50;3.08;;;;;;;;;;5036867;28;20121;-69
2023/07/17 09:14:34;;;;;;;10.85;3.25;;;;;;;;;;5032266;28;20125;-71
2023/07/17 09:17:02;;;;;;;11.02;4.03;;;;;;;;;;5043542;28;20098;-69
2023/07/17 09:19:32;;;;;;;12.20;3.65;;;;;;;;;;5042330;28;20437;-70
2023/07/17 09:21:58;;;;;;;9.55;2.80;;;;;;;;;;5037995;28;20026;-69
2023/07/17 09:24:27;;;;;;;10.80;3.00;;;;;;;;;;5028865;28;20060;-70
2023/07/17 09:26:58;;;;;;;9.10;2.55;;;;;;;;;;5031940;28;20041;-70
2023/07/17 09:29:25;;;;;;;8.85;2.90;;;;;;;;;;5040662;28;20099;-69
2023/07/17 09:31:51;;;;;;;7.95;2.92;;;;;;;;;;5046060;28;20029;-70
2023/07/17 09:34:18;;;;;;;7.00;2.78;;;;;;;;;;5044373;28;20033;-70
2023/07/17 09:36:44;;;;;;;10.38;3.47;;;;;;;;;;5040643;28;20021;-69
2023/07/17 09:39:11;;;;;;;10.15;3.70;;;;;;;;;;5043713;28;20029;-69
2023/07/17 09:41:37;;;;;;;9.27;3.20;;;;;;;;;;5040051;28;20021;-70
2023/07/17 09:44:07;;;;;;;12.95;3.80;;;;;;;;;;5048556;28;20044;-71
2023/07/17 09:46:33;;;;;;;;;;;;;;;;;;5053451;28;20033;-71
2023/07/17 09:48:59;;;;;;;14.48;4.10;;;;;;;;;;5052248;28;19909;-70
2023/07/17 09:51:25;;;;;;;11.20;3.65;;;;;;;;;;5052906;28;20041;-68
2023/07/17 09:53:52;;;;;;;9.75;3.33;;;;;;;;;;5055011;28;20107;-70
2023/07/17 09:56:19;;;;;;;14.60;5.97;;;;;;;;;;5047777;28;20048;-69
2023/07/17 09:58:50;;;;;;;13.20;4.35;;;;;;;;;;5046368;28;20021;-69
2023/07/17 10:01:17;;;;;;;10.70;3.90;;;;;;;;;;5048118;28;20120;-70
2023/07/17 10:03:47;;;;;;;10.13;4.13;;;;;;;;;;5048277;28;20449;-70
2023/07/17 10:06:15;;;;;;;14.98;4.40;;;;;;;;;;5051330;28;20043;-70
2023/07/17 10:08:44;;;;;;;14.65;4.28;;;;;;;;;;5052603;28;20029;-69
2023/07/17 10:11:11;;;;;;;11.35;4.03;;;;;;;;;;5045090;28;20041;-70
2023/07/17 10:13:37;;;;;;;12.30;3.83;;;;;;;;;;5045585;28;20044;-70
2023/07/17 10:16:03;;;;;;;12.23;3.92;;;;;;;;;;5043280;28;20033;-71
2023/07/17 10:18:30;;;;;;;14.23;3.58;;;;;;;;;;5047143;28;20075;-71
2023/07/17 10:20:57;;;;;;;14.00;4.57;;;;;;;;;;5040445;28;20034;-71
2023/07/17 10:23:24;;;;;;;17.35;5.03;;;;;;;;;;5039233;28;20064;-71
2023/07/17 10:25:50;;;;;;;11.88;4.47;;;;;;;;;;5046739;28;20706;-70
2023/07/17 10:28:29;;;;;;;10.90;4.28;;;;;;;;;;5051760;28;20044;-70
2023/07/17 10:30:55;;;;;;;11.32;3.63;;;;;;;;;;5033609;28;20073;-70
2023/07/17 10:33:22;;;;;;;10.32;3.55;;;;;;;;;;5036176;28;20474;-70
2023/07/17 10:36:00;;;;;;;7.63;3.63;;;;;;;;;;5052014;28;20029;-70
2023/07/17 10:38:27;;;;;;;13.20;3.50;;;;;;;;;;5036239;28;20489;-71
2023/07/17 10:41:05;;;;;;;11.50;3.30;;;;;;;;;;5035496;28;20395;-71
2023/07/17 10:43:32;;;;;;;12.43;3.83;;;;;;;;;;5041039;28;20021;-72
2023/07/17 10:45:59;;;;;;;9.27;3.58;;;;;;;;;;5046728;28;20388;-71
2023/07/17 10:48:27;;;;;;;11.77;3.60;;;;;;;;;;5044674;28;20040;-72
2023/07/17 10:50:54;;;;;;;9.15;3.83;;;;;;;;;;5034569;28;20253;-71
2023/07/17 10:53:21;;;;;;;10.20;4.40;;;;;;;;;;5052461;28;20037;-71
2023/07/17 10:55:47;;;;;;;14.43;4.53;;;;;;;;;;5035218;28;20073;-71
2023/07/17 10:58:14;;;;;;;12.13;4.55;;;;;;;;;;5050258;28;20025;-72
2023/07/17 11:00:41;;;;;;;11.23;4.40;;;;;;;;;;5067400;28;20036;-71
2023/07/17 11:03:07;;;;;;;13.95;4.22;;;;;;;;;;5051329;28;20036;-71
2023/07/17 11:05:39;;;;;;;13.95;5.10;;;;;;;;;;5050241;28;20051;-71
2023/07/17 11:08:06;;;;;;;11.20;4.68;;;;;;;;;;5067399;28;20052;-71
2023/07/17 11:10:33;;;;;;;13.63;5.22;;;;;;;;;;5052518;28;20532;-70
2023/07/17 11:13:03;;;;;;;14.25;4.15;;;;;;;;;;5064471;28;20036;-71
2023/07/17 11:15:33;;;;;;;11.50;4.03;;;;;;;;;;5045752;28;20033;-70
2023/07/17 11:18:00;;;;;;;8.10;3.55;;;;;;;;;;5039397;28;20045;-71
2023/07/17 11:20:27;;;;;;;11.98;3.97;;;;;;;;;;5053734;28;20064;-71
2023/07/17 11:22:53;;;;;;;14.95;5.00;;;;;;;;;;5062389;28;20039;-70
2023/07/17 11:25:20;;;;;;;10.43;3.88;;;;;;;;;;5068562;28;20057;-70
2023/07/17 11:27:46;;;;;;;16.25;4.32;;;;;;;;;;5056693;28;20135;-70
2023/07/17 11:30:20;;;;;;;10.82;3.67;;;;;;;;;;5065146;28;20092;-71
2023/07/17 11:33:15;;;;;;;8.60;3.47;;;;;;;;;;5053412;28;20037;-70
2023/07/17 11:35:41;;;;;;;10.63;3.78;;;;;;;;;;5027904;28;20064;-70
2023/07/17 11:38:10;;;;;;;8.48;3.90;;;;;;;;;;5044976;28;20029;-71
2023/07/17 11:40:52;;;;;;;12.15;3.30;;;;;;;;;;5052998;28;20198;-70
2023/07/17 11:43:25;;;;;;;9.75;3.90;;;;;;;;;;5048631;28;20029;-71
2023/07/17 11:45:53;;;;;;;9.50;3.80;;;;;;;;;;5049136;28;20025;-70
2023/07/17 11:48:19;;;;;;;13.30;4.20;;;;;;;;;;5048880;28;20083;-70
2023/07/17 11:50:46;;;;;;;13.10;4.07;;;;;;;;;;5038336;28;20090;-70
2023/07/17 11:53:13;;;;;;;12.27;4.28;;;;;;;;;;5049499;28;20036;-70
2023/07/17 11:55:41;;;;;;;11.07;3.72;;;;;;;;;;5041107;28;20083;-70
2023/07/17 11:58:13;;;;;;;14.23;4.63;;;;;;;;;;5041908;28;20041;-70
2023/07/17 12:00:48;;;;;;;10.30;4.30;;;;;;;;;;5044610;28;20112;-70
2023/07/17 12:03:14;;;;;;;9.80;4.13;;;;;;;;;;5045152;28;20040;-70
2023/07/17 12:05:40;;;;;;;11.00;4.55;;;;;;;;;;5047323;28;20445;-70
2023/07/17 12:08:07;;;;;;;11.48;4.78;;;;;;;;;;5041268;28;20068;-70
2023/07/17 12:10:52;;;;;;;11.98;4.45;;;;;;;;;;5035840;28;20033;-70
2023/07/17 12:13:18;;;;;;;9.45;4.03;;;;;;;;;;5040358;28;20037;-69
2023/07/17 12:15:44;;;;;;;12.65;4.78;;;;;;;;;;5060375;28;21859;-70
2023/07/17 12:18:11;;;;;;;13.50;5.03;;;;;;;;;;5048146;28;20379;-70
2023/07/17 12:20:37;;;;;;;14.50;5.13;;;;;;;;;;5046343;28;20033;-70
2023/07/17 12:23:05;;;;;;;17.92;5.88;;;;;;;;;;5045340;28;20181;-71
2023/07/17 12:25:31;;;;;;;37.50;8.35;;;;;;;;;;5048287;28;20064;-72
2023/07/17 12:28:01;;;;;;;21.67;6.68;;;;;;;;;;5043079;28;20119;-72
2023/07/17 12:30:27;;;;;;;27.60;8.90;;;;;;;;;;5034324;28;20045;-72
2023/07/17 12:32:55;;;;;;;21.40;7.68;;;;;;;;;;5049185;28;20068;-72
2023/07/17 12:35:21;;;;;;;19.65;7.22;;;;;;;;;;5060354;28;20516;-72
2023/07/17 12:37:47;;;;;;;24.48;8.70;;;;;;;;;;5045184;28;20064;-71
2023/07/17 12:40:13;;;;;;;19.60;8.23;;;;;;;;;;5047532;28;20155;-71
2023/07/17 12:42:39;;;;;;;24.77;7.78;;;;;;;;;;5048621;28;20037;-71
2023/07/17 12:45:06;;;;;;;19.05;8.18;;;;;;;;;;5043745;28;20045;-71
2023/07/17 12:47:32;;;;;;;21.92;8.50;;;;;;;;;;5047520;28;20125;-71
2023/07/17 12:49:58;;;;;;;23.90;8.68;;;;;;;;;;5047005;28;20068;-71
2023/07/17 12:52:24;;;;;;;25.13;10.60;;;;;;;;;;5051033;28;20033;-70
2023/07/17 12:54:51;;;;;;;28.63;9.68;;;;;;;;;;5047641;28;20098;-71
2023/07/17 12:57:18;;;;;;;98.60;13.10;;;;;;;;;;5037162;28;20037;-71
2023/07/17 12:59:44;;;;;;;15.27;6.75;;;;;;;;;;5048827;28;20021;-71
2023/07/17 13:02:10;;;;;;;16.27;6.65;;;;;;;;;;5041889;28;20030;-72
2023/07/17 13:04:36;;;;;;;15.75;6.35;;;;;;;;;;5047144;28;20055;-72
2023/07/17 13:07:03;;;;;;;14.85;5.82;;;;;;;;;;5062924;28;20025;-72
2023/07/17 13:09:29;;;;;;;11.48;6.43;;;;;;;;;;5045400;28;20040;-72
2023/07/17 13:11:55;;;;;;;14.73;5.95;;;;;;;;;;5047429;28;20021;-72
2023/07/17 13:14:21;;;;;;;14.00;5.70;;;;;;;;;;5045664;28;20154;-71
2023/07/17 13:16:48;;;;;;;14.88;6.25;;;;;;;;;;5062853;28;20056;-71
2023/07/17 13:19:14;;;;;;;15.15;6.07;;;;;;;;;;5043986;28;20086;-71
2023/07/17 13:21:40;;;;;;;10.60;5.78;;;;;;;;;;5043811;28;20040;-71
2023/07/17 13:24:06;;;;;;;16.38;6.35;;;;;;;;;;5046353;28;20029;-71
2023/07/17 13:26:33;;;;;;;15.98;6.60;;;;;;;;;;5045470;28;20057;-71
2023/07/17 13:29:00;;;;;;;16.58;6.00;;;;;;;;;;5061737;28;20028;-71
2023/07/17 13:31:26;;;;;;;12.63;5.57;;;;;;;;;;5063605;28;20029;-71
2023/07/17 13:33:53;;;;;;;15.05;6.43;;;;;;;;;;5050794;28;20409;-71
2023/07/17 13:36:19;;;;;;;12.70;5.80;;;;;;;;;;5044879;28;20037;-71
2023/07/17 13:38:45;;;;;;;12.25;5.60;;;;;;;;;;5048887;28;20175;-71
2023/07/17 13:41:12;;;;;;;16.38;6.47;;;;;;;;;;5043714;28;20024;-70
2023/07/17 13:43:39;;;;;;;18.50;6.18;;;;;;;;;;5041483;28;20025;-71
2023/07/17 13:46:05;;;;;;;14.07;5.95;;;;;;;;;;5054451;28;20521;-71
2023/07/17 13:48:31;;;;;;;10.57;5.53;;;;;;;;;;5037505;28;20086;-71
2023/07/17 13:50:57;;;;;;;11.65;5.90;;;;;;;;;;5047839;28;20390;-71
2023/07/17 13:53:23;;;;;;;13.93;5.88;;;;;;;;;;5044234;28;20526;-69
2023/07/17 13:55:49;;;;;;;14.85;6.10;;;;;;;;;;5039742;28;20073;-70
2023/07/17 13:58:15;;;;;;;11.80;5.10;;;;;;;;;;5042797;28;20167;-71
2023/07/17 14:00:42;;;;;;;12.07;4.90;;;;;;;;;;5022449;28;20032;-69
2023/07/17 14:03:08;;;;;;;15.13;5.07;;;;;;;;;;5041891;28;20509;-68
2023/07/17 14:05:34;;;;;;;11.82;5.13;;;;;;;;;;5042750;28;20120;-70
2023/07/17 14:08:00;;;;;;;13.70;4.80;;;;;;;;;;5041454;28;20104;-70
2023/07/17 14:10:27;;;;;;;13.20;4.80;;;;;;;;;;5033355;28;20236;-70
2023/07/17 14:12:53;;;;;;;10.75;4.90;;;;;;;;;;5042347;28;20490;-70
2023/07/17 14:15:19;;;;;;;17.80;4.90;;;;;;;;;;5037407;28;20033;-70
2023/07/17 14:17:45;;;;;;;18.60;5.88;;;;;;;;;;5043494;28;20049;-70
2023/07/17 14:20:11;;;;;;;14.77;5.70;;;;;;;;;;5057829;28;20033;-70
2023/07/17 14:22:38;;;;;;;11.82;5.10;;;;;;;;;;5035425;28;20103;-70
2023/07/17 14:25:04;;;;;;;16.23;5.63;;;;;;;;;;5032852;28;20450;-70
2023/07/17 14:27:30;;;;;;;13.30;5.22;;;;;;;;;;5031137;28;20285;-70
2023/07/17 14:29:57;;;;;;;10.50;5.30;;;;;;;;;;5036613;28;20052;-69